createdAt,value
2018-02-15T00:01:23.374Z,50.20
2018-02-15T00:03:51.603Z,50.00
2018-02-15T00:06:19.953Z,51.50
2018-02-15T00:08:48.179Z,50.20
2018-02-15T00:11:17.162Z,48.80
2018-02-15T00:13:45.466Z,48.80
2018-02-15T00:16:14.450Z,50.60
2018-02-15T00:18:43.465Z,50.30
2018-02-15T00:21:11.693Z,50.20
2018-02-15T00:23:39.920Z,49.30
2018-02-15T00:26:08.151Z,49.40
2018-02-15T00:28:36.368Z,49.30
2018-02-15T00:31:04.597Z,50.00
2018-02-15T00:33:32.810Z,49.70
2018-02-15T00:36:01.042Z,49.70
2018-02-15T00:38:29.264Z,50.00
2018-02-15T00:40:57.502Z,50.70
2018-02-15T00:43:25.743Z,50.30
2018-02-15T00:45:53.973Z,51.10
2018-02-15T00:48:22.970Z,50.10
2018-02-15T00:50:51.967Z,49.60
2018-02-15T00:53:20.970Z,49.00
2018-02-15T00:55:49.956Z,50.10
2018-02-15T00:58:18.952Z,49.10
2018-02-15T01:00:47.956Z,49.10
2018-02-15T01:03:17.267Z,49.50
2018-02-15T01:05:45.496Z,49.40
2018-02-15T01:08:13.721Z,50.30
2018-02-15T01:10:41.961Z,49.60
2018-02-15T01:13:10.187Z,49.80
2018-02-15T01:15:38.448Z,50.20
2018-02-15T01:18:06.755Z,50.30
2018-02-15T01:20:35.009Z,50.60
2018-02-15T01:23:03.321Z,51.20
2018-02-15T01:25:31.617Z,50.70
2018-02-15T01:27:59.927Z,50.10
2018-02-15T01:30:28.992Z,50.10
2018-02-15T01:32:58.764Z,49.30
2018-02-15T01:35:27.029Z,49.30
2018-02-15T01:37:56.106Z,50.40
2018-02-15T01:40:24.349Z,50.20
2018-02-15T01:42:52.633Z,49.70
2018-02-15T01:45:20.939Z,49.90
2018-02-15T01:47:50.004Z,51.40
2018-02-15T01:50:18.281Z,51.40
2018-02-15T01:52:46.558Z,51.20
2018-02-15T01:55:14.870Z,52.20
2018-02-15T01:57:43.917Z,50.80
2018-02-15T02:00:12.220Z,50.70
2018-02-15T02:02:40.483Z,51.00
2018-02-15T02:05:08.758Z,49.90
2018-02-15T02:07:37.137Z,50.80
2018-02-15T02:10:05.440Z,49.40
2018-02-15T02:12:33.804Z,49.30
2018-02-15T02:15:02.112Z,49.90
2018-02-15T02:17:31.146Z,50.80
2018-02-15T02:19:59.389Z,50.70
2018-02-15T02:22:28.428Z,50.20
2018-02-15T02:24:56.730Z,50.20
2018-02-15T02:27:25.025Z,50.20
2018-02-15T02:29:54.205Z,50.60
2018-02-15T02:32:22.470Z,49.80
2018-02-15T02:34:50.745Z,50.10
2018-02-15T02:37:19.050Z,50.20
2018-02-15T02:39:47.305Z,50.30
2018-02-15T02:42:15.603Z,50.80
2018-02-15T02:44:43.874Z,50.20
2018-02-15T02:47:12.169Z,50.70
2018-02-15T02:49:40.435Z,50.90
2018-02-15T02:52:09.456Z,51.00
2018-02-15T02:54:37.717Z,51.00
2018-02-15T02:57:06.798Z,52.00
2018-02-15T02:59:35.067Z,52.00
2018-02-15T03:02:03.383Z,51.70
2018-02-15T03:04:31.679Z,51.60
2018-02-15T03:06:59.975Z,52.50
2018-02-15T03:09:28.228Z,52.10
2018-02-15T03:11:56.480Z,52.00
2018-02-15T03:14:25.510Z,51.90
2018-02-15T03:16:53.773Z,51.80
2018-02-15T03:19:23.037Z,51.90
2018-02-15T03:21:51.311Z,52.30
2018-02-15T03:24:19.554Z,51.90
2018-02-15T03:26:47.859Z,52.00
2018-02-15T03:29:16.157Z,52.10
2018-02-15T03:31:45.204Z,51.90
2018-02-15T03:34:13.461Z,51.90
2018-02-15T03:36:41.764Z,52.60
2018-02-15T03:39:10.007Z,52.00
2018-02-15T03:41:38.333Z,51.60
2018-02-15T03:44:06.570Z,51.90
2018-02-15T03:46:34.816Z,51.60
2018-02-15T03:49:03.866Z,51.00
2018-02-15T03:51:32.157Z,51.00
2018-02-15T03:54:00.480Z,51.70
2018-02-15T03:56:28.772Z,51.30
2018-02-15T03:58:57.044Z,51.10
2018-02-15T04:01:25.303Z,51.00
2018-02-15T04:03:54.365Z,51.60
2018-02-15T04:06:22.679Z,51.60
2018-02-15T04:08:51.698Z,51.70
2018-02-15T04:11:20.024Z,51.60
2018-02-15T04:13:48.328Z,51.70
2018-02-15T04:16:17.416Z,52.00
2018-02-15T04:18:46.432Z,51.50
2018-02-15T04:21:14.705Z,51.50
2018-02-15T04:23:43.006Z,51.70
2018-02-15T04:26:11.245Z,52.20
2018-02-15T04:28:40.311Z,51.50
2018-02-15T04:31:08.604Z,51.50
2018-02-15T04:33:36.859Z,51.90
2018-02-15T04:36:05.913Z,51.70
2018-02-15T04:38:34.218Z,51.60
2018-02-15T04:41:02.462Z,51.30
2018-02-15T04:43:30.748Z,51.90
2018-02-15T04:45:59.008Z,51.60
2018-02-15T04:48:27.298Z,51.40
2018-02-15T04:50:55.546Z,51.50
2018-02-15T04:53:24.569Z,51.60
2018-02-15T04:55:52.847Z,51.60
2018-02-15T04:58:21.140Z,51.50
2018-02-15T05:00:49.393Z,51.30
2018-02-15T05:03:17.654Z,51.80
2018-02-15T05:05:46.679Z,51.50
2018-02-15T05:08:14.934Z,52.10
2018-02-15T05:10:43.979Z,51.40
2018-02-15T05:13:13.059Z,51.40
2018-02-15T05:15:41.350Z,51.20
2018-02-15T05:18:09.593Z,51.30
2018-02-15T05:20:37.922Z,51.40
2018-02-15T05:23:06.210Z,51.80
2018-02-15T05:25:34.526Z,52.00
2018-02-15T05:28:02.783Z,52.10
2018-02-15T05:30:31.792Z,51.90
2018-02-15T05:33:00.067Z,51.90
2018-02-15T05:35:28.321Z,52.00
2018-02-15T05:37:57.338Z,51.80
2018-02-15T05:40:28.506Z,51.80
2018-02-15T05:42:56.822Z,51.80
2018-02-15T05:45:25.106Z,52.00
2018-02-15T05:47:53.437Z,52.40
2018-02-15T05:50:21.673Z,52.00
2018-02-15T05:52:50.717Z,52.60
2018-02-15T05:55:18.984Z,52.60
2018-02-15T05:57:47.629Z,52.40
2018-02-15T06:00:16.660Z,52.60
2018-02-15T06:02:44.939Z,52.60
2018-02-15T06:05:13.247Z,52.20
2018-02-15T06:07:41.527Z,52.40
2018-02-15T06:10:09.825Z,52.40
2018-02-15T06:12:38.057Z,52.70
2018-02-15T06:15:06.390Z,52.50
2018-02-15T06:17:34.628Z,52.50
2018-02-15T06:20:02.916Z,52.70
2018-02-15T06:22:31.240Z,52.50
2018-02-15T06:24:59.528Z,52.40
2018-02-15T06:27:27.845Z,52.50
2018-02-15T06:29:56.136Z,52.50
2018-02-15T06:32:24.420Z,52.40
2018-02-15T06:34:52.694Z,52.40
2018-02-15T06:37:20.950Z,52.20
2018-02-15T06:39:49.217Z,52.50
2018-02-15T06:42:17.516Z,52.90
2018-02-15T06:44:45.868Z,52.30
2018-02-15T06:47:14.167Z,52.70
2018-02-15T06:49:42.467Z,52.70
2018-02-15T06:52:10.766Z,52.40
2018-02-15T06:54:39.858Z,52.20
2018-02-15T06:57:08.852Z,52.80
2018-02-15T06:59:37.900Z,52.40
2018-02-15T07:02:06.202Z,52.30
2018-02-15T07:04:34.444Z,52.20
2018-02-15T07:07:02.705Z,52.30
2018-02-15T07:09:30.985Z,52.10
2018-02-15T07:11:59.474Z,52.40
2018-02-15T07:14:27.777Z,52.50
2018-02-15T07:16:56.016Z,52.10
2018-02-15T07:19:24.280Z,52.30
2018-02-15T07:21:52.573Z,52.90
2018-02-15T07:24:20.828Z,52.80
2018-02-15T07:26:49.155Z,52.60
2018-02-15T07:29:17.422Z,52.50
2018-02-15T07:31:45.718Z,52.40
2018-02-15T07:34:13.995Z,52.40
2018-02-15T07:36:42.295Z,52.30
2018-02-15T07:39:10.577Z,52.10
2018-02-15T07:41:38.871Z,52.40
2018-02-15T07:44:07.110Z,52.30
2018-02-15T07:46:35.416Z,52.50
2018-02-15T07:49:04.433Z,52.30
2018-02-15T07:51:32.677Z,52.30
2018-02-15T07:54:01.015Z,52.30
2018-02-15T07:56:29.271Z,52.20
2018-02-15T07:58:57.536Z,52.10
2018-02-15T08:01:25.804Z,52.30
2018-02-15T08:03:54.115Z,52.40
2018-02-15T08:06:22.453Z,52.40
2018-02-15T08:08:51.123Z,52.30
2018-02-15T08:11:19.409Z,52.30
2018-02-15T08:13:47.685Z,52.30
2018-02-15T08:16:16.701Z,52.10
2018-02-15T08:18:44.984Z,52.10
2018-02-15T08:21:13.233Z,52.00
2018-02-15T08:23:42.257Z,52.10
2018-02-15T08:26:10.565Z,52.10
2018-02-15T08:28:38.828Z,52.00
2018-02-15T08:31:07.151Z,51.80
2018-02-15T08:33:35.400Z,51.70
2018-02-15T08:36:03.688Z,51.70
2018-02-15T08:38:31.978Z,51.70
2018-02-15T08:41:00.228Z,51.70
2018-02-15T08:43:28.477Z,51.70
2018-02-15T08:45:56.751Z,52.00
2018-02-15T08:48:25.019Z,51.90
2018-02-15T08:50:53.253Z,51.90
2018-02-15T08:53:21.521Z,52.00
2018-02-15T08:55:49.812Z,51.80
2018-02-15T08:58:18.045Z,51.70
2018-02-15T09:00:46.331Z,51.50
2018-02-15T09:03:14.629Z,51.60
2018-02-15T09:05:42.881Z,51.40
2018-02-15T09:08:11.174Z,51.60
2018-02-15T09:10:39.422Z,51.70
2018-02-15T09:13:07.671Z,51.20
2018-02-15T09:15:36.776Z,50.80
2018-02-15T09:18:04.987Z,50.70
2018-02-15T09:20:33.260Z,50.70
2018-02-15T09:23:01.517Z,50.70
2018-02-15T09:25:29.819Z,50.90
2018-02-15T09:27:58.126Z,50.70
2018-02-15T09:30:26.353Z,50.90
2018-02-15T09:32:54.668Z,51.20
2018-02-15T09:35:22.938Z,50.00
2018-02-15T09:37:51.240Z,50.10
2018-02-15T09:40:19.509Z,50.00
2018-02-15T09:42:47.791Z,50.30
2018-02-15T09:45:16.087Z,50.20
2018-02-15T09:47:44.323Z,50.20
2018-02-15T09:50:12.624Z,49.70
2018-02-15T09:52:40.854Z,48.90
2018-02-15T09:55:09.109Z,49.80
2018-02-15T09:57:38.168Z,49.30
2018-02-15T10:00:06.471Z,49.30
2018-02-15T10:02:35.519Z,49.60
2018-02-15T10:05:03.751Z,49.50
2018-02-15T10:07:32.807Z,49.20
2018-02-15T10:10:01.043Z,49.10
2018-02-15T10:12:29.332Z,49.00
2018-02-15T10:14:57.628Z,48.50
2018-02-15T10:17:25.932Z,49.00
2018-02-15T10:19:54.172Z,48.70
2018-02-15T10:22:22.438Z,49.30
2018-02-15T10:24:50.716Z,48.60
2018-02-15T10:27:18.961Z,49.40
2018-02-15T10:29:47.224Z,49.50
2018-02-15T10:32:15.498Z,48.40
2018-02-15T10:34:43.797Z,48.30
2018-02-15T10:37:12.083Z,48.30
2018-02-15T10:39:40.340Z,48.80
2018-02-15T10:42:09.389Z,47.90
2018-02-15T10:44:37.680Z,47.90
2018-02-15T10:47:05.924Z,48.40
2018-02-15T10:49:34.218Z,48.50
2018-02-15T10:52:02.500Z,47.90
2018-02-15T10:54:30.720Z,48.10
2018-02-15T10:56:59.784Z,46.80
2018-02-15T10:59:28.022Z,46.80
2018-02-15T11:02:02.021Z,46.50
2018-02-15T11:04:34.332Z,47.50
2018-02-15T11:07:02.615Z,47.50
2018-02-15T11:09:30.872Z,45.60
2018-02-15T11:11:59.164Z,46.10
2018-02-15T11:14:27.446Z,46.60
2018-02-15T11:16:55.723Z,47.50
2018-02-15T11:19:23.976Z,47.80
2018-02-15T11:21:52.211Z,46.50
2018-02-15T11:24:21.241Z,46.80
2018-02-15T11:26:49.482Z,46.80
2018-02-15T11:29:17.818Z,46.50
2018-02-15T11:31:46.056Z,45.30
2018-02-15T11:34:14.299Z,44.90
2018-02-15T11:36:42.573Z,46.50
2018-02-15T11:39:10.856Z,46.80
2018-02-15T11:41:39.132Z,45.70
2018-02-15T11:44:07.393Z,45.20
2018-02-15T11:46:35.633Z,46.80
2018-02-15T11:49:03.940Z,47.10
2018-02-15T11:51:32.185Z,46.30
2018-02-15T11:54:00.787Z,45.60
2018-02-15T11:56:29.055Z,46.40
2018-02-15T11:58:57.319Z,45.00
2018-02-15T12:01:25.562Z,45.30
2018-02-15T12:03:53.852Z,45.30
2018-02-15T12:06:22.924Z,44.70
2018-02-15T12:08:51.171Z,44.70
2018-02-15T12:11:19.418Z,45.40
2018-02-15T12:13:47.704Z,44.60
2018-02-15T12:16:15.959Z,44.60
2018-02-15T12:18:44.243Z,43.80
2018-02-15T12:21:12.511Z,44.20
2018-02-15T12:23:40.753Z,46.00
2018-02-15T12:26:09.031Z,44.60
2018-02-15T12:28:37.281Z,44.60
2018-02-15T12:31:05.559Z,45.20
2018-02-15T12:33:33.802Z,45.10
2018-02-15T12:36:02.100Z,44.60
2018-02-15T12:38:30.374Z,45.70
2018-02-15T12:40:58.623Z,45.10
2018-02-15T12:43:26.916Z,45.10
2018-02-15T12:45:55.164Z,45.10
2018-02-15T12:48:24.209Z,44.40
2018-02-15T12:50:52.471Z,44.40
2018-02-15T12:53:20.713Z,45.00
2018-02-15T12:55:48.995Z,44.20
2018-02-15T12:58:18.021Z,43.90
2018-02-15T13:00:46.262Z,43.90
2018-02-15T13:03:15.323Z,45.00
2018-02-15T13:05:43.556Z,45.00
2018-02-15T13:08:11.869Z,44.30
2018-02-15T13:10:40.150Z,44.80
2018-02-15T13:13:35.180Z,43.80
2018-02-15T13:16:15.272Z,44.60
2018-02-15T13:18:43.567Z,44.90
2018-02-15T13:21:11.812Z,44.80
2018-02-15T13:23:40.840Z,45.30
2018-02-15T13:26:09.126Z,45.40
2018-02-15T13:28:38.333Z,45.40
2018-02-15T13:31:06.632Z,46.00
2018-02-15T13:33:34.869Z,46.20
2018-02-15T13:36:03.179Z,46.70
2018-02-15T13:38:31.442Z,47.70
2018-02-15T13:40:59.803Z,48.70
2018-02-15T13:43:29.475Z,50.40
2018-02-15T13:45:58.493Z,50.80
2018-02-15T13:48:26.750Z,50.70
2018-02-15T13:50:55.816Z,53.00
2018-02-15T13:53:24.145Z,53.00
2018-02-15T13:55:52.372Z,52.80
2018-02-15T13:58:20.713Z,52.80
2018-02-15T14:00:48.987Z,53.50
2018-02-15T14:03:17.236Z,54.30
2018-02-15T14:05:46.254Z,54.50
2018-02-15T14:08:14.532Z,54.50
2018-02-15T14:10:42.851Z,55.30
2018-02-15T14:13:11.156Z,55.40
2018-02-15T14:15:40.211Z,55.00
2018-02-15T14:18:08.501Z,55.00
2018-02-15T14:20:36.783Z,56.20
2018-02-15T14:23:05.045Z,55.40
2018-02-15T14:25:33.317Z,55.70
2018-02-15T14:28:01.622Z,56.20
2018-02-15T14:30:29.860Z,55.60
2018-02-15T14:32:58.140Z,56.20
2018-02-15T14:35:26.398Z,57.90
2018-02-15T14:37:54.689Z,56.90
2018-02-15T14:40:22.954Z,58.20
2018-02-15T14:42:51.178Z,58.40
2018-02-15T14:45:19.487Z,57.40
2018-02-15T14:47:47.716Z,57.40
2018-02-15T14:50:16.027Z,58.00
2018-02-15T14:52:45.041Z,58.70
2018-02-15T14:55:13.363Z,58.70
2018-02-15T14:57:41.612Z,59.50
2018-02-15T15:00:09.849Z,59.50
2018-02-15T15:02:38.911Z,58.80
2018-02-15T15:05:07.184Z,58.90
2018-02-15T15:07:35.428Z,59.30
2018-02-15T15:10:03.676Z,59.60
2018-02-15T15:12:32.755Z,58.20
2018-02-15T15:15:01.783Z,58.90
2018-02-15T15:17:30.083Z,58.80
2018-02-15T15:19:58.321Z,58.20
2018-02-15T15:22:26.609Z,59.10
2018-02-15T15:24:55.678Z,59.50
2018-02-15T15:27:23.968Z,59.50
2018-02-15T15:29:52.288Z,59.80
2018-02-15T15:32:20.517Z,58.60
2018-02-15T15:34:49.536Z,60.40
2018-02-15T15:37:17.832Z,60.30
2018-02-15T15:39:46.114Z,59.80
2018-02-15T15:42:14.427Z,60.60
2018-02-15T15:44:42.674Z,59.80
2018-02-15T15:47:10.962Z,60.10
2018-02-15T15:49:39.242Z,59.40
2018-02-15T15:52:07.489Z,60.00
2018-02-15T15:54:35.766Z,59.80
2018-02-15T15:57:04.081Z,61.40
2018-02-15T15:59:32.401Z,61.40
2018-02-15T16:02:01.450Z,60.80
2018-02-15T16:04:29.772Z,60.80
2018-02-15T16:06:58.037Z,60.60
2018-02-15T16:09:27.045Z,61.30
2018-02-15T16:11:56.109Z,60.70
2018-02-15T16:14:24.395Z,60.70
2018-02-15T16:16:52.696Z,62.00
2018-02-15T16:19:21.729Z,61.40
2018-02-15T16:21:50.056Z,61.40
2018-02-15T16:24:18.331Z,60.60
2018-02-15T16:42:01.927Z,60.50
2018-02-15T16:44:31.873Z,61.50
2018-02-15T16:47:00.141Z,61.00
2018-02-15T16:49:29.247Z,61.30
2018-02-15T16:51:59.361Z,62.20
2018-02-15T16:54:27.661Z,62.50
2018-02-15T16:56:56.752Z,60.70
2018-02-15T16:59:25.054Z,60.80
2018-02-15T17:01:53.313Z,60.50
2018-02-15T17:04:22.337Z,59.70
2018-02-15T17:06:50.624Z,59.80
2018-02-15T17:09:18.925Z,61.80
2018-02-15T17:11:47.193Z,60.40
2018-02-15T17:14:15.528Z,59.50
2018-02-15T17:16:43.853Z,60.20
2018-02-15T17:19:12.092Z,60.00
2018-02-15T17:21:40.357Z,59.90
2018-02-15T17:24:09.419Z,59.40
2018-02-15T17:26:37.685Z,59.40
2018-02-15T17:29:05.926Z,59.50
2018-02-15T17:31:34.249Z,59.50
2018-02-15T17:34:02.526Z,59.50
2018-02-15T17:36:31.718Z,59.90
2018-02-15T17:38:59.998Z,60.30
2018-02-15T17:41:28.289Z,59.60
2018-02-15T17:43:56.654Z,59.30
2018-02-15T17:46:24.882Z,59.50
2018-02-15T17:48:53.516Z,59.70
2018-02-15T17:51:21.813Z,58.90
2018-02-15T17:53:50.101Z,58.60
2018-02-15T17:56:18.416Z,59.20
2018-02-15T17:58:46.688Z,60.50
2018-02-15T18:01:14.943Z,59.90
2018-02-15T18:03:43.965Z,60.60
2018-02-15T18:06:12.246Z,60.60
2018-02-15T18:08:41.335Z,60.20
2018-02-15T18:14:59.851Z,60.30
2018-02-15T18:17:28.153Z,60.30
2018-02-15T18:19:56.405Z,60.00
2018-02-15T18:22:24.677Z,60.10
2018-02-15T18:24:52.985Z,60.30
2018-02-15T18:27:21.294Z,60.50
2018-02-15T18:29:49.618Z,59.90
2018-02-15T18:32:17.856Z,60.20
2018-02-15T18:34:46.127Z,59.60
2018-02-15T18:37:14.415Z,59.30
2018-02-15T18:39:42.705Z,60.70
2018-02-15T18:42:10.968Z,60.20
2018-02-15T18:44:39.247Z,61.00
2018-02-15T18:47:07.574Z,60.40
2018-02-15T18:49:35.860Z,60.20
2018-02-15T18:52:04.144Z,60.20
2018-02-15T18:54:33.153Z,60.10
2018-02-15T18:57:01.606Z,60.10
2018-02-15T18:59:30.573Z,60.40
2018-02-15T19:02:00.025Z,60.10
2018-02-15T19:04:28.319Z,60.10
2018-02-15T19:06:56.566Z,59.90
2018-02-15T19:09:25.613Z,60.10
2018-02-15T19:11:53.904Z,60.00
2018-02-15T19:14:22.186Z,60.00
2018-02-15T19:16:50.440Z,59.70
2018-02-15T19:19:18.729Z,59.90
2018-02-15T19:21:47.063Z,59.90
2018-02-15T19:24:16.105Z,60.10
2018-02-15T19:26:44.354Z,60.10
2018-02-15T19:29:12.645Z,59.70
2018-02-15T19:31:40.945Z,59.80
2018-02-15T19:34:09.199Z,59.50
2018-02-15T19:36:37.450Z,59.30
2018-02-15T19:39:05.759Z,59.70
2018-02-15T19:41:33.987Z,59.50
2018-02-15T19:44:03.023Z,60.00
2018-02-15T19:46:31.303Z,59.90
2018-02-15T19:48:59.556Z,60.10
2018-02-15T19:51:28.597Z,61.20
2018-02-15T19:53:56.842Z,61.10
2018-02-15T19:56:25.097Z,60.40
2018-02-15T19:58:53.457Z,60.50
2018-02-15T20:01:21.723Z,60.50
2018-02-15T20:03:50.106Z,59.90
2018-02-15T20:06:18.404Z,60.40
2018-02-15T20:08:47.482Z,60.50
2018-02-15T20:11:15.774Z,60.40
2018-02-15T20:13:44.825Z,60.50
2018-02-15T20:16:13.103Z,60.40
2018-02-15T20:18:41.383Z,60.50
2018-02-15T20:21:09.651Z,60.50
2018-02-15T20:23:37.955Z,60.00
2018-02-15T20:26:11.986Z,60.80
2018-02-15T20:28:41.015Z,60.80
2018-02-15T20:31:10.818Z,60.80
2018-02-15T20:33:39.116Z,61.80
2018-02-15T20:36:07.382Z,60.40
2018-02-15T20:38:41.310Z,60.00
2018-02-15T20:41:09.585Z,60.30
2018-02-15T20:43:37.863Z,60.50
2018-02-15T20:46:06.090Z,60.00
2018-02-15T20:48:35.149Z,60.50
2018-02-15T20:51:09.055Z,60.30
2018-02-15T20:53:42.829Z,60.10
2018-02-15T20:56:11.104Z,60.90
2018-02-15T20:58:39.392Z,61.00
2018-02-15T21:01:07.643Z,59.80
2018-02-15T21:03:35.895Z,60.00
2018-02-15T21:06:04.220Z,59.60
2018-02-15T21:08:32.455Z,60.40
2018-02-15T21:11:01.490Z,60.70
2018-02-15T21:13:29.726Z,60.60
2018-02-15T21:15:58.749Z,60.50
2018-02-15T21:18:27.023Z,60.40
2018-02-15T21:20:55.265Z,61.00
2018-02-15T21:23:23.530Z,60.30
2018-02-15T21:25:52.454Z,60.10
2018-02-15T21:28:21.504Z,59.70
2018-02-15T21:30:49.802Z,59.80
2018-02-15T21:33:18.110Z,59.90
2018-02-15T21:35:47.181Z,61.50
2018-02-15T21:38:15.410Z,61.40
2018-02-15T21:40:43.729Z,60.40
2018-02-15T21:43:11.972Z,60.40
2018-02-15T21:45:40.981Z,60.10
2018-02-15T21:48:09.289Z,60.00
2018-02-15T21:50:37.515Z,60.30
2018-02-15T21:53:05.876Z,60.60
2018-02-15T21:55:34.921Z,60.30
2018-02-15T21:58:03.202Z,60.30
2018-02-15T22:00:31.432Z,59.90
2018-02-15T22:02:59.762Z,60.30
2018-02-15T22:05:28.018Z,60.60
2018-02-15T22:07:56.253Z,60.50
2018-02-15T22:10:24.584Z,60.80
2018-02-15T22:12:52.822Z,59.90
2018-02-15T22:15:21.080Z,60.30
2018-02-15T22:17:49.341Z,60.60
2018-02-15T22:20:18.415Z,60.60
2018-02-15T22:22:46.692Z,60.60
2018-02-15T22:25:14.973Z,60.50
2018-02-15T22:27:43.269Z,60.70
2018-02-15T22:30:12.280Z,60.90
2018-02-15T22:32:40.589Z,60.80
2018-02-15T22:35:08.871Z,61.00
2018-02-15T22:37:37.162Z,60.70
2018-02-15T22:40:05.452Z,60.90
2018-02-15T22:42:33.756Z,60.40
2018-02-15T22:45:03.397Z,61.10
2018-02-15T22:47:31.673Z,61.10
2018-02-15T22:49:59.928Z,60.10
2018-02-15T22:52:28.224Z,61.10
2018-02-15T22:54:56.477Z,60.60
2018-02-15T22:57:24.767Z,61.60
2018-02-15T22:59:53.048Z,61.10
2018-02-15T23:02:21.287Z,59.80
2018-02-15T23:04:50.345Z,61.40
2018-02-15T23:07:18.587Z,61.40
2018-02-15T23:09:46.885Z,61.00
2018-02-15T23:12:15.195Z,61.00
2018-02-15T23:14:43.476Z,60.80
2018-02-15T23:17:11.752Z,61.10
2018-02-15T23:19:40.012Z,61.40
2018-02-15T23:22:08.266Z,61.10
2018-02-15T23:24:36.581Z,61.60
2018-02-15T23:27:06.319Z,61.50
2018-02-15T23:29:35.398Z,61.10
2018-02-15T23:32:03.663Z,61.00
2018-02-15T23:34:31.895Z,61.00
2018-02-15T23:37:00.201Z,60.70
2018-02-15T23:39:28.479Z,61.70
2018-02-15T23:41:56.729Z,61.10
2018-02-15T23:44:25.011Z,60.90
2018-02-15T23:46:53.314Z,60.10
2018-02-15T23:49:21.559Z,61.50
2018-02-15T23:51:49.858Z,61.20
2018-02-15T23:54:18.134Z,61.70
2018-02-15T23:56:47.168Z,62.00
2018-02-15T23:59:15.464Z,62.70
